createdAt,value
2024-01-22T00:01:41.068Z,3.72
2024-01-22T00:04:08.964Z,2.80
2024-01-22T00:06:37.902Z,2.63
2024-01-22T00:09:06.217Z,2.80
2024-01-22T00:11:35.210Z,2.40
2024-01-22T00:14:02.762Z,2.80
2024-01-22T00:16:30.262Z,2.25
2024-01-22T00:18:58.011Z,2.00
2024-01-22T00:21:25.704Z,1.70
2024-01-22T00:23:53.242Z,1.90
2024-01-22T00:26:20.862Z,1.65
2024-01-22T00:28:49.836Z,1.60
2024-01-22T00:31:17.386Z,1.80
2024-01-22T00:33:45.241Z,1.52
2024-01-22T00:36:14.046Z,1.95
2024-01-22T00:38:41.772Z,1.40
2024-01-22T00:41:09.394Z,1.40
2024-01-22T00:43:37.133Z,1.38
2024-01-22T00:46:08.838Z,1.17
2024-01-22T00:48:36.585Z,1.40
2024-01-22T00:51:04.337Z,1.35
2024-01-22T00:53:31.904Z,1.52
2024-01-22T00:55:59.451Z,1.33
2024-01-22T00:58:27.150Z,1.35
2024-01-22T01:00:54.758Z,1.98
2024-01-22T01:03:23.717Z,1.20
2024-01-22T01:05:51.363Z,1.55
2024-01-22T01:08:18.906Z,1.30
2024-01-22T01:10:46.416Z,1.10
2024-01-22T01:13:18.631Z,1.30
2024-01-22T01:15:46.214Z,1.45
2024-01-22T01:18:16.165Z,1.15
2024-01-22T01:20:45.092Z,0.93
2024-01-22T01:23:12.852Z,1.40
2024-01-22T01:25:40.375Z,1.35
2024-01-22T01:28:08.525Z,1.20
2024-01-22T01:30:36.079Z,1.63
2024-01-22T01:33:03.773Z,1.30
2024-01-22T01:35:31.433Z,1.50
2024-01-22T01:38:00.302Z,1.10
2024-01-22T01:40:27.942Z,1.10
2024-01-22T01:42:55.943Z,1.02
2024-01-22T01:45:23.422Z,1.27
2024-01-22T01:47:51.344Z,1.13
2024-01-22T01:50:19.418Z,1.50
2024-01-22T01:52:47.157Z,1.13
2024-01-22T01:55:16.551Z,1.20
2024-01-22T01:57:48.165Z,1.02
2024-01-22T02:00:19.722Z,1.42
2024-01-22T02:02:47.470Z,1.13
2024-01-22T02:05:16.852Z,1.10
2024-01-22T02:07:44.415Z,1.60
2024-01-22T02:10:13.352Z,1.38
2024-01-22T02:12:42.217Z,1.17
2024-01-22T02:15:10.585Z,1.38
2024-01-22T02:17:38.273Z,1.25
2024-01-22T02:20:07.101Z,1.20
2024-01-22T02:22:34.676Z,1.50
2024-01-22T02:25:04.070Z,1.38
2024-01-22T02:27:31.617Z,1.40
2024-01-22T02:29:59.181Z,0.90
2024-01-22T02:32:26.854Z,1.02
2024-01-22T02:34:57.178Z,1.40
2024-01-22T02:37:24.758Z,1.27
2024-01-22T02:39:52.259Z,1.30
2024-01-22T02:42:21.170Z,1.08
2024-01-22T02:44:48.763Z,1.20
2024-01-22T02:47:16.314Z,1.60
2024-01-22T02:49:43.900Z,1.02
2024-01-22T02:52:11.425Z,1.13
2024-01-22T02:54:39.641Z,1.10
2024-01-22T02:57:07.230Z,1.30
2024-01-22T02:59:38.005Z,1.10
2024-01-22T03:02:05.919Z,1.17
2024-01-22T03:04:33.462Z,1.20
2024-01-22T03:07:01.297Z,1.10
2024-01-22T03:09:28.816Z,0.98
2024-01-22T03:11:56.607Z,0.98
2024-01-22T03:14:24.670Z,0.90
2024-01-22T03:16:53.462Z,0.90
2024-01-22T03:19:21.127Z,0.90
2024-01-22T03:21:48.731Z,0.95
2024-01-22T03:24:16.376Z,0.85
2024-01-22T03:26:44.016Z,0.70
2024-01-22T03:29:11.646Z,1.10
2024-01-22T03:31:39.556Z,0.82
2024-01-22T03:34:08.885Z,0.93
2024-01-22T03:36:37.281Z,0.95
2024-01-22T03:39:04.998Z,1.08
2024-01-22T03:41:33.348Z,2.05
2024-01-22T03:44:03.837Z,2.42
2024-01-22T03:46:31.517Z,2.17
2024-01-22T03:48:59.522Z,3.53
2024-01-22T03:51:28.559Z,3.53
2024-01-22T03:53:56.162Z,2.67
2024-01-22T03:56:23.733Z,5.68
2024-01-22T03:58:51.293Z,5.38
2024-01-22T04:01:22.793Z,3.97
2024-01-22T04:03:50.398Z,3.42
2024-01-22T04:06:18.243Z,3.00
2024-01-22T04:08:47.297Z,2.47
2024-01-22T04:11:14.935Z,1.65
2024-01-22T04:13:43.569Z,1.63
2024-01-22T04:18:41.504Z,1.02
2024-01-22T04:21:09.178Z,1.00
2024-01-22T04:23:37.065Z,0.98
2024-01-22T04:26:06.741Z,0.85
2024-01-22T04:28:34.276Z,1.15
2024-01-22T04:31:01.879Z,1.00
2024-01-22T04:33:31.496Z,0.95
2024-01-22T04:35:59.154Z,0.80
2024-01-22T04:38:27.507Z,0.68
2024-01-22T04:40:55.078Z,0.80
2024-01-22T04:43:23.989Z,0.52
2024-01-22T04:45:51.546Z,0.65
2024-01-22T04:48:19.131Z,0.45
2024-01-22T04:50:46.689Z,0.60
2024-01-22T04:53:14.229Z,0.73
2024-01-22T04:55:41.756Z,0.57
2024-01-22T04:58:09.294Z,0.52
2024-01-22T05:00:38.213Z,0.40
2024-01-22T05:03:06.804Z,0.52
2024-01-22T05:05:35.164Z,0.70
2024-01-22T05:08:02.971Z,0.40
2024-01-22T05:10:30.528Z,0.60
2024-01-22T05:12:58.121Z,0.30
2024-01-22T05:15:25.855Z,0.55
2024-01-22T05:17:54.850Z,0.50
2024-01-22T05:20:22.482Z,0.30
2024-01-22T05:22:50.054Z,0.40
2024-01-22T05:25:17.999Z,0.50
2024-01-22T05:27:46.362Z,0.40
2024-01-22T05:30:15.741Z,0.50
2024-01-22T05:32:43.570Z,0.40
2024-01-22T05:35:13.158Z,0.30
2024-01-22T05:37:41.140Z,0.30
2024-01-22T05:40:11.114Z,0.25
2024-01-22T05:42:38.794Z,0.35
2024-01-22T05:45:07.493Z,0.30
2024-01-22T05:47:35.219Z,0.30
2024-01-22T05:50:02.989Z,0.22
2024-01-22T05:52:45.122Z,0.20
2024-01-22T05:57:48.320Z,0.25
2024-01-22T06:00:19.733Z,0.22
2024-01-22T06:02:47.458Z,0.30
2024-01-22T06:05:15.626Z,0.30
2024-01-22T06:07:57.799Z,0.20
2024-01-22T06:12:54.340Z,0.13
2024-01-22T06:15:22.608Z,0.40
2024-01-22T06:17:51.088Z,0.20
2024-01-22T06:20:18.746Z,0.40
2024-01-22T06:22:47.663Z,0.30
2024-01-22T06:25:15.227Z,0.30
2024-01-22T06:27:45.398Z,0.20
2024-01-22T06:30:16.464Z,0.80
2024-01-22T06:32:44.241Z,0.25
2024-01-22T06:35:12.645Z,0.50
2024-01-22T06:37:40.276Z,0.30
2024-01-22T06:40:10.697Z,0.20
2024-01-22T06:42:39.589Z,0.30
2024-01-22T06:45:09.138Z,0.20
2024-01-22T06:47:36.897Z,0.20
2024-01-22T06:50:05.136Z,0.30
2024-01-22T06:52:32.983Z,0.20
2024-01-22T06:55:01.406Z,0.20
2024-01-22T06:57:29.378Z,0.20
2024-01-22T06:59:57.051Z,0.38
2024-01-22T07:02:27.575Z,0.20
2024-01-22T07:04:56.789Z,0.40
2024-01-22T07:09:51.794Z,0.28
2024-01-22T07:12:20.907Z,0.20
2024-01-22T07:14:50.325Z,0.32
2024-01-22T07:19:45.568Z,0.20
2024-01-22T07:22:13.250Z,0.20
2024-01-22T07:24:41.581Z,0.22
2024-01-22T07:27:09.339Z,0.20
2024-01-22T07:29:36.854Z,0.20
2024-01-22T07:32:06.116Z,0.20
2024-01-22T07:34:33.628Z,0.10
2024-01-22T07:37:01.169Z,0.10
2024-01-22T07:39:28.796Z,0.10
2024-01-22T07:41:56.372Z,0.20
2024-01-22T07:44:23.943Z,0.10
2024-01-22T07:46:51.720Z,0.13
2024-01-22T07:49:20.634Z,0.15
2024-01-22T07:51:48.236Z,0.10
2024-01-22T07:54:15.881Z,0.03
2024-01-22T07:56:43.445Z,0.10
2024-01-22T07:59:10.997Z,0.10
2024-01-22T08:01:38.480Z,0.00
2024-01-22T08:04:06.446Z,0.20
2024-01-22T08:06:35.376Z,0.10
2024-01-22T08:09:03.118Z,0.20
2024-01-22T08:11:31.220Z,0.25
2024-01-22T08:13:58.737Z,0.20
2024-01-22T08:16:26.572Z,0.13
2024-01-22T08:18:54.538Z,0.20
2024-01-22T08:21:22.162Z,0.20
2024-01-22T08:23:51.095Z,0.10
2024-01-22T08:26:19.094Z,0.10
2024-01-22T08:28:46.646Z,0.20
2024-01-22T08:31:14.194Z,0.30
2024-01-22T08:33:42.279Z,0.20
2024-01-22T08:36:09.991Z,0.20
2024-01-22T08:38:37.508Z,0.30
2024-01-22T08:41:09.227Z,0.20
2024-01-22T08:43:36.737Z,0.30
2024-01-22T08:46:04.267Z,0.28
2024-01-22T08:48:33.153Z,0.10
2024-01-22T08:51:00.797Z,0.32
2024-01-22T08:53:28.351Z,0.30
2024-01-22T08:55:59.193Z,0.30
2024-01-22T08:58:28.384Z,0.40
2024-01-22T09:00:55.995Z,0.43
2024-01-22T09:03:25.673Z,0.40
2024-01-22T09:05:53.769Z,0.32
2024-01-22T09:08:21.408Z,0.50
2024-01-22T09:10:48.921Z,0.40
2024-01-22T09:13:16.458Z,0.50
2024-01-22T09:15:45.408Z,0.30
2024-01-22T09:18:13.039Z,0.65
2024-01-22T09:20:40.616Z,0.55
2024-01-22T09:23:08.164Z,1.17
2024-01-22T09:25:35.655Z,0.90
2024-01-22T09:28:03.372Z,0.80
2024-01-22T09:30:31.006Z,0.77
2024-01-22T09:33:00.728Z,0.70
2024-01-22T09:35:28.487Z,0.75
2024-01-22T09:37:56.150Z,0.50
2024-01-22T09:40:28.468Z,0.30
2024-01-22T09:43:04.177Z,0.70
2024-01-22T09:45:32.936Z,0.45
2024-01-22T09:48:02.071Z,0.40
2024-01-22T09:50:30.055Z,0.40
2024-01-22T09:53:00.586Z,0.52
2024-01-22T09:55:28.378Z,0.32
2024-01-22T09:57:56.324Z,0.40
2024-01-22T10:00:27.255Z,0.15
2024-01-22T10:02:56.146Z,0.20
2024-01-22T10:05:25.686Z,0.17
2024-01-22T10:07:53.897Z,0.30
2024-01-22T10:10:22.574Z,0.40
2024-01-22T10:13:04.941Z,0.30
2024-01-22T10:15:33.051Z,0.30
2024-01-22T10:18:10.926Z,0.10
2024-01-22T10:20:40.606Z,0.30
2024-01-22T10:23:09.062Z,0.75
2024-01-22T10:25:36.880Z,1.10
2024-01-22T10:28:15.284Z,1.80
2024-01-22T10:30:43.371Z,1.10
2024-01-22T10:33:14.992Z,1.35
2024-01-22T10:35:44.125Z,2.50
2024-01-22T10:38:13.411Z,2.35
2024-01-22T10:40:41.224Z,2.58
2024-01-22T10:43:28.129Z,2.05
2024-01-22T10:45:56.976Z,3.10
2024-01-22T10:51:10.786Z,1.63
2024-01-22T10:53:40.065Z,2.05
2024-01-22T10:56:14.089Z,2.15
2024-01-22T10:58:42.957Z,1.23
2024-01-22T11:01:13.949Z,1.10
2024-01-22T11:03:45.863Z,1.00
2024-01-22T11:06:16.222Z,0.93
2024-01-22T11:08:47.444Z,0.93
2024-01-22T11:11:15.126Z,0.90
2024-01-22T11:13:42.697Z,1.02
2024-01-22T11:16:10.909Z,1.00
2024-01-22T11:18:38.591Z,0.70
2024-01-22T11:21:23.034Z,0.65
2024-01-22T11:24:17.152Z,0.65
2024-01-22T11:26:45.919Z,0.57
2024-01-22T11:29:16.717Z,0.43
2024-01-22T11:31:45.451Z,0.40
2024-01-22T11:34:15.663Z,0.55
2024-01-22T11:36:56.910Z,0.50
2024-01-22T11:39:44.377Z,0.40
2024-01-22T11:42:27.492Z,0.40
2024-01-22T11:44:56.228Z,0.25
2024-01-22T11:47:25.150Z,0.35
2024-01-22T11:52:24.981Z,0.30
2024-01-22T11:54:54.247Z,0.35
2024-01-22T11:57:22.211Z,0.40
2024-01-22T12:00:00.306Z,0.50
2024-01-22T12:02:28.086Z,0.20
2024-01-22T12:05:07.387Z,0.25
2024-01-22T12:07:37.246Z,0.40
2024-01-22T12:10:06.165Z,0.30
2024-01-22T12:12:33.795Z,0.30
2024-01-22T12:15:02.396Z,0.30
2024-01-22T12:17:30.010Z,0.43
2024-01-22T12:20:00.528Z,0.50
2024-01-22T12:22:29.393Z,0.38
2024-01-22T12:25:08.238Z,0.40
2024-01-22T12:27:36.293Z,0.30
2024-01-22T12:30:05.695Z,0.47
2024-01-22T12:32:33.725Z,0.40
2024-01-22T12:35:01.794Z,0.60
2024-01-22T12:37:29.787Z,1.42
2024-01-22T12:40:15.380Z,0.50
2024-01-22T12:42:46.556Z,0.60
2024-01-22T12:45:15.387Z,0.60
2024-01-22T12:47:43.467Z,0.65
2024-01-22T12:50:12.166Z,0.90
2024-01-22T12:52:41.569Z,0.60
2024-01-22T12:55:10.986Z,0.47
2024-01-22T12:57:38.977Z,0.75
2024-01-22T13:00:10.064Z,0.50
2024-01-22T13:02:39.312Z,0.73
2024-01-22T13:05:08.620Z,1.08
2024-01-22T13:07:36.512Z,0.90
2024-01-22T13:10:04.047Z,0.80
2024-01-22T13:12:33.130Z,0.73
2024-01-22T13:17:28.657Z,0.68
2024-01-22T13:19:56.628Z,1.10
2024-01-22T13:22:24.406Z,0.77
2024-01-22T13:24:53.062Z,0.60
2024-01-22T13:27:20.837Z,0.90
2024-01-22T13:29:49.843Z,0.85
2024-01-22T13:32:20.152Z,0.68
2024-01-22T13:34:47.849Z,0.70
2024-01-22T13:37:15.443Z,0.50
2024-01-22T13:39:45.960Z,1.13
2024-01-22T13:42:16.770Z,0.82
2024-01-22T13:44:44.389Z,1.10
2024-01-22T13:47:17.913Z,1.05
2024-01-22T13:49:53.461Z,1.17
2024-01-22T13:52:31.452Z,1.02
2024-01-22T13:55:00.987Z,0.95
2024-01-22T13:57:28.537Z,1.48
2024-01-22T13:59:56.380Z,0.98
2024-01-22T14:02:25.280Z,1.10
2024-01-22T14:04:52.778Z,1.10
2024-01-22T14:07:20.399Z,1.10
2024-01-22T14:09:49.653Z,0.88
2024-01-22T14:12:19.149Z,1.20
2024-01-22T14:14:47.893Z,1.10
2024-01-22T14:17:16.508Z,1.35
2024-01-22T14:19:45.577Z,1.45
2024-01-22T14:22:13.399Z,1.17
2024-01-22T14:24:40.943Z,1.05
2024-01-22T14:27:08.749Z,1.75
2024-01-22T14:29:36.311Z,1.30
2024-01-22T14:32:03.956Z,0.98
2024-01-22T14:34:31.791Z,1.50
2024-01-22T14:37:01.777Z,1.02
2024-01-22T14:39:29.874Z,1.17
2024-01-22T14:41:57.433Z,1.45
2024-01-22T14:44:25.067Z,1.30
2024-01-22T14:46:52.572Z,1.17
2024-01-22T14:49:20.184Z,0.85
2024-01-22T14:51:48.300Z,1.27
2024-01-22T14:54:17.566Z,1.25
2024-01-22T14:56:45.629Z,1.60
2024-01-22T14:59:13.193Z,1.55
2024-01-22T15:01:40.879Z,1.70
2024-01-22T15:04:10.379Z,1.35
2024-01-22T15:06:39.441Z,1.67
2024-01-22T15:09:09.875Z,1.42
2024-01-22T15:11:40.677Z,1.52
2024-01-22T15:14:09.105Z,1.60
2024-01-22T15:16:36.617Z,1.83
2024-01-22T15:19:04.386Z,1.95
2024-01-22T15:21:32.192Z,1.90
2024-01-22T15:23:59.870Z,1.75
2024-01-22T15:26:27.545Z,1.50
2024-01-22T15:28:56.735Z,1.75
2024-01-22T15:31:24.661Z,1.10
2024-01-22T15:33:53.007Z,1.75
2024-01-22T15:36:21.219Z,2.90
2024-01-22T15:38:50.600Z,1.95
2024-01-22T15:41:19.352Z,1.70
2024-01-22T15:43:48.283Z,1.38
2024-01-22T15:46:17.390Z,2.13
2024-01-22T15:48:49.502Z,1.77
2024-01-22T15:51:17.247Z,1.70
2024-01-22T15:53:45.017Z,2.00
2024-01-22T15:56:12.722Z,1.90
2024-01-22T15:58:40.279Z,1.85
2024-01-22T16:01:07.789Z,2.42
2024-01-22T16:03:38.351Z,2.30
2024-01-22T16:06:06.354Z,1.88
2024-01-22T16:08:34.380Z,2.00
2024-01-22T16:11:03.025Z,1.60
2024-01-22T16:13:30.745Z,1.95
2024-01-22T16:15:58.561Z,1.63
2024-01-22T16:18:26.275Z,1.70
2024-01-22T16:20:55.541Z,1.38
2024-01-22T16:23:23.285Z,2.10
2024-01-22T16:25:51.164Z,2.17
2024-01-22T16:28:19.106Z,2.05
2024-01-22T16:30:46.671Z,2.20
2024-01-22T16:33:14.481Z,2.00
2024-01-22T16:35:42.508Z,1.88
2024-01-22T16:38:11.364Z,2.50
2024-01-22T16:40:38.872Z,2.30
2024-01-22T16:43:06.408Z,1.67
2024-01-22T16:45:34.161Z,2.40
2024-01-22T16:48:02.282Z,1.80
2024-01-22T16:50:30.547Z,1.58
2024-01-22T16:52:58.091Z,1.60
2024-01-22T16:55:26.952Z,1.48
2024-01-22T16:57:54.453Z,2.08
2024-01-22T17:00:23.183Z,1.63
2024-01-22T17:02:51.278Z,1.75
2024-01-22T17:05:18.926Z,1.20
2024-01-22T17:07:47.193Z,1.58
2024-01-22T17:10:14.833Z,1.60
2024-01-22T17:12:43.805Z,1.80
2024-01-22T17:17:39.818Z,1.35
2024-01-22T17:20:09.864Z,1.95
2024-01-22T17:22:37.594Z,1.13
2024-01-22T17:25:05.870Z,1.50
2024-01-22T17:27:34.547Z,1.60
2024-01-22T17:30:03.587Z,1.75
2024-01-22T17:32:31.294Z,1.55
2024-01-22T17:34:58.921Z,5.10
2024-01-22T17:37:26.555Z,6.22
2024-01-22T17:39:54.292Z,5.60
2024-01-22T17:42:21.911Z,6.15
2024-01-22T17:44:50.372Z,4.28
2024-01-22T17:47:19.318Z,4.30
2024-01-22T17:49:46.924Z,3.90
2024-01-22T17:52:14.596Z,3.40
2024-01-22T17:54:42.161Z,2.75
2024-01-22T17:57:09.731Z,2.60
2024-01-22T17:59:37.559Z,2.47
2024-01-22T18:02:05.473Z,2.75
2024-01-22T18:04:34.366Z,2.58
2024-01-22T18:07:02.181Z,2.90
2024-01-22T18:09:29.972Z,3.17
2024-01-22T18:11:57.626Z,2.33
2024-01-22T18:14:25.192Z,2.78
2024-01-22T18:16:52.704Z,1.95
2024-01-22T18:19:20.376Z,2.30
2024-01-22T18:21:49.316Z,2.63
2024-01-22T18:24:16.930Z,2.10
2024-01-22T18:26:45.954Z,2.17
2024-01-22T18:29:14.027Z,2.00
2024-01-22T18:31:41.596Z,2.22
2024-01-22T18:34:09.289Z,2.70
2024-01-22T18:36:36.914Z,1.98
2024-01-22T18:39:06.559Z,2.38
2024-01-22T18:41:36.978Z,2.30
2024-01-22T18:44:07.804Z,2.40
2024-01-22T18:46:35.400Z,2.33
2024-01-22T18:49:04.829Z,2.15
2024-01-22T18:51:32.756Z,2.17
2024-01-22T18:54:00.327Z,2.15
2024-01-22T18:56:29.211Z,2.58
2024-01-22T18:58:56.800Z,2.00
2024-01-22T19:01:24.492Z,2.83
2024-01-22T19:03:52.284Z,2.45
2024-01-22T19:06:19.850Z,2.25
2024-01-22T19:08:47.847Z,2.35
2024-01-22T19:11:16.740Z,2.60
2024-01-22T19:13:45.614Z,2.35
2024-01-22T19:16:15.305Z,2.05
2024-01-22T19:18:45.143Z,2.10
2024-01-22T19:23:42.806Z,2.45
2024-01-22T19:26:10.315Z,2.47
2024-01-22T19:28:37.961Z,1.90
2024-01-22T19:31:07.068Z,2.05
2024-01-22T19:33:34.735Z,2.65
2024-01-22T19:36:01.450Z,2.50
2024-01-22T19:38:28.990Z,1.98
2024-01-22T19:40:56.975Z,2.15
2024-01-22T19:43:25.043Z,1.92
2024-01-22T19:45:52.617Z,1.95
2024-01-22T19:48:21.681Z,2.63
2024-01-22T19:50:49.299Z,1.92
2024-01-22T19:53:16.837Z,2.00
2024-01-22T19:55:44.369Z,1.80
2024-01-22T19:58:12.003Z,1.52
2024-01-22T20:00:39.805Z,1.65
2024-01-22T20:03:07.631Z,1.83
2024-01-22T20:05:36.686Z,1.80
2024-01-22T20:08:04.895Z,1.40
2024-01-22T20:10:32.481Z,1.90
2024-01-22T20:13:00.118Z,1.73
2024-01-22T20:15:27.848Z,1.80
2024-01-22T20:17:55.543Z,1.60
2024-01-22T20:20:23.170Z,1.85
2024-01-22T20:22:52.465Z,2.25
2024-01-22T20:25:20.018Z,2.22
2024-01-22T20:27:47.517Z,1.63
2024-01-22T20:30:15.229Z,1.73
2024-01-22T20:32:43.271Z,2.10
2024-01-22T20:35:10.875Z,1.95
2024-01-22T20:37:39.375Z,2.22
2024-01-22T20:40:09.562Z,2.13
2024-01-22T20:42:37.901Z,1.95
2024-01-22T20:45:06.588Z,2.10
2024-01-22T20:47:34.259Z,2.08
2024-01-22T20:50:01.947Z,1.92
2024-01-22T20:52:29.540Z,1.73
2024-01-22T20:54:57.472Z,1.92
2024-01-22T20:57:26.630Z,1.80
2024-01-22T20:59:54.351Z,1.63
2024-01-22T21:02:22.154Z,1.63
2024-01-22T21:04:50.534Z,1.55
2024-01-22T21:07:18.303Z,1.58
2024-01-22T21:09:46.067Z,1.92
2024-01-22T21:12:16.863Z,1.95
2024-01-22T21:14:45.953Z,1.63
2024-01-22T21:17:13.550Z,1.70
2024-01-22T21:19:41.290Z,1.38
2024-01-22T21:22:09.311Z,1.50
2024-01-22T21:24:37.690Z,1.58
2024-01-22T21:27:06.071Z,1.80
2024-01-22T21:29:33.712Z,2.05
2024-01-22T21:32:02.595Z,1.85
2024-01-22T21:34:30.216Z,1.85
2024-01-22T21:36:57.757Z,1.73
2024-01-22T21:39:25.360Z,1.58
2024-01-22T21:41:54.488Z,1.65
2024-01-22T21:44:22.173Z,1.70
2024-01-22T21:46:50.127Z,1.63
2024-01-22T21:49:19.083Z,1.60
2024-01-22T21:51:46.706Z,1.38
2024-01-22T21:54:14.305Z,1.90
2024-01-22T21:56:41.934Z,1.67
2024-01-22T21:59:11.220Z,1.75
2024-01-22T22:01:38.783Z,1.30
2024-01-22T22:04:06.665Z,1.42
2024-01-22T22:06:36.039Z,1.52
2024-01-22T22:11:31.347Z,1.75
2024-01-22T22:13:58.991Z,1.90
2024-01-22T22:16:28.045Z,1.52
2024-01-22T22:18:56.165Z,1.40
2024-01-22T22:21:24.048Z,1.25
2024-01-22T22:23:52.991Z,2.08
2024-01-22T22:26:20.680Z,2.00
2024-01-22T22:28:48.242Z,2.00
2024-01-22T22:31:15.766Z,1.70
2024-01-22T22:33:43.374Z,1.50
2024-01-22T22:36:11.502Z,1.25
2024-01-22T22:38:39.056Z,1.40
2024-01-22T22:41:10.376Z,1.40
2024-01-22T22:43:39.594Z,1.55
2024-01-22T22:46:07.133Z,1.17
2024-01-22T22:48:34.729Z,1.48
2024-01-22T22:51:03.403Z,1.42
2024-01-22T22:53:30.973Z,1.42
2024-01-22T22:55:58.461Z,1.48
2024-01-22T22:58:27.306Z,1.40
2024-01-22T23:00:54.881Z,1.50
2024-01-22T23:03:23.944Z,1.30
2024-01-22T23:05:53.609Z,1.45
2024-01-22T23:08:21.243Z,1.60
2024-01-22T23:10:48.808Z,1.67
2024-01-22T23:13:16.489Z,1.65
2024-01-22T23:15:45.362Z,1.40
2024-01-22T23:18:13.073Z,1.70
2024-01-22T23:20:40.964Z,1.50
2024-01-22T23:23:08.489Z,1.08
2024-01-22T23:25:38.342Z,1.48
2024-01-22T23:28:06.419Z,1.42
2024-01-22T23:30:34.019Z,1.20
2024-01-22T23:33:03.108Z,1.00
2024-01-22T23:35:31.481Z,1.50
2024-01-22T23:38:01.695Z,1.02
2024-01-22T23:40:29.257Z,1.27
2024-01-22T23:42:56.765Z,1.33
2024-01-22T23:45:24.348Z,1.30
2024-01-22T23:47:52.030Z,0.77
2024-01-22T23:50:22.667Z,2.22
2024-01-22T23:52:50.795Z,1.00
2024-01-22T23:55:18.515Z,1.00
2024-01-22T23:57:48.151Z,1.60
